Webcam Flughafen St.Gallen-Altenrhein

Live-Bilder und Zeitraffer LSZR / ACH.

 

Live aus Altenrhein
LIVE
LSZR 031320Z 02005KT 9999 FEW070CB 25/09 Q1005 NOSIG RMK H
Zeitraffer heute
2020-06-03 00:13:54
LSZR 022150Z AUTO VRB01KT CAVOK 16/09 Q1012